Time;durP1;ratioP1;P1;durP2;ratioP2;P2;SDS_P1;SDS_P2;PMS_P1;PMS_P2;Temp;Humidity;BMP_temperature;BMP_pressure;BME280_temperature;BME280_humidity;BME280_pressure;Samples;Min_cycle;Max_cycle;Signal;HPM_P1;HPM_P2
2023/05/04 00:00:43;;;;;;;6.57;6.07;;;17.70;99.90;;;;;;5050295;28;20429;-68
2023/05/04 00:03:09;;;;;;;6.60;6.00;;;17.90;99.90;;;;;;5049960;28;20028;-68
2023/05/04 00:05:35;;;;;;;6.47;5.88;;;17.90;99.90;;;;;;5050683;28;20032;-67
2023/05/04 00:08:01;;;;;;;6.38;5.82;;;17.80;99.90;;;;;;5050512;28;20510;-67
2023/05/04 00:10:27;;;;;;;6.78;6.18;;;17.80;99.90;;;;;;5051774;28;20032;-67
2023/05/04 00:12:53;;;;;;;6.70;6.10;;;17.80;99.90;;;;;;5050763;28;20037;-67
2023/05/04 00:15:20;;;;;;;6.63;5.88;;;17.80;99.90;;;;;;5050400;28;20036;-67
2023/05/04 00:17:46;;;;;;;6.80;5.80;;;17.80;99.90;;;;;;5051659;28;20462;-67
2023/05/04 00:20:12;;;;;;;6.88;6.10;;;17.80;99.90;;;;;;5050593;28;20029;-67
2023/05/04 00:22:38;;;;;;;7.00;6.30;;;17.80;99.90;;;;;;5050671;28;20049;-67
2023/05/04 00:25:05;;;;;;;6.53;5.93;;;17.90;99.90;;;;;;5049619;28;20025;-67
2023/05/04 00:27:31;;;;;;;6.80;6.20;;;18.00;99.90;;;;;;5052026;28;20049;-67
2023/05/04 00:29:57;;;;;;;6.88;6.15;;;17.90;99.90;;;;;;5050693;28;20112;-67
2023/05/04 00:32:24;;;;;;;6.60;6.05;;;17.90;99.90;;;;;;5049707;28;20478;-67
2023/05/04 00:34:50;;;;;;;6.75;6.10;;;17.90;99.90;;;;;;5051743;28;20033;-67
2023/05/04 00:37:16;;;;;;;7.38;6.68;;;18.00;99.90;;;;;;5050473;28;20025;-67
2023/05/04 00:39:42;;;;;;;7.90;7.10;;;18.10;99.90;;;;;;5049118;28;20394;-67
2023/05/04 00:42:08;;;;;;;6.80;6.20;;;18.20;99.90;;;;;;5049742;28;20045;-67
2023/05/04 00:44:34;;;;;;;7.78;6.60;;;18.30;99.90;;;;;;5055189;28;20036;-67
2023/05/04 00:47:01;;;;;;;8.20;6.30;;;18.10;99.90;;;;;;5054567;28;20037;-67
2023/05/04 00:49:27;;;;;;;7.28;6.57;;;17.90;99.90;;;;;;5070568;28;20045;-67
2023/05/04 00:51:54;;;;;;;7.30;6.35;;;17.90;99.90;;;;;;5053329;28;20037;-67
2023/05/04 00:54:20;;;;;;;7.53;6.82;;;17.80;99.90;;;;;;5053632;28;20037;-67
2023/05/04 00:56:46;;;;;;;7.93;7.00;;;17.70;99.90;;;;;;5053800;28;20040;-67
2023/05/04 00:59:12;;;;;;;7.15;6.55;;;17.80;99.90;;;;;;5052907;28;20021;-67
2023/05/04 01:01:40;;;;;;;7.57;6.75;;;17.80;99.90;;;;;;5054065;28;20037;-67
2023/05/04 01:04:06;;;;;;;7.45;6.68;;;17.80;99.90;;;;;;5054980;28;20045;-67
2023/05/04 01:06:47;;;;;;;7.47;6.78;;;17.80;99.90;;;;;;5055159;28;20113;-67
2023/05/04 01:10:02;;;;;;;7.45;6.22;;;17.80;99.90;;;;;;5053436;28;20068;-67
2023/05/04 01:12:41;;;;;;;6.75;6.25;;;17.60;99.90;;;;;;5044832;28;20473;-68
2023/05/04 01:15:08;;;;;;;7.07;6.47;;;17.50;99.90;;;;;;5052552;28;20036;-68
2023/05/04 01:17:35;;;;;;;7.43;6.82;;;17.50;99.90;;;;;;5054100;28;20025;-67
2023/05/04 01:20:01;;;;;;;6.97;6.28;;;17.40;99.90;;;;;;5069377;28;20036;-68
2023/05/04 01:22:27;;;;;;;7.38;6.68;;;17.50;99.90;;;;;;5053274;28;20052;-68
2023/05/04 01:24:53;;;;;;;7.22;6.63;;;17.50;99.90;;;;;;5053735;28;20487;-67
2023/05/04 01:27:29;;;;;;;6.65;6.05;;;17.60;99.90;;;;;;5052460;28;20041;-67
2023/05/04 01:30:06;;;;;;;7.95;6.70;;;17.40;99.90;;;;;;5054390;28;20021;-69
2023/05/04 01:32:32;;;;;;;7.97;6.65;;;17.40;99.90;;;;;;5069520;28;20025;-67
2023/05/04 01:34:58;;;;;;;7.07;6.43;;;17.30;99.90;;;;;;5072340;28;20029;-67
2023/05/04 01:37:25;;;;;;;7.50;6.90;;;17.30;99.90;;;;;;5052368;28;20444;-68
2023/05/04 01:39:51;;;;;;;7.10;6.40;;;17.30;99.90;;;;;;5063418;28;20024;-68
2023/05/04 01:42:17;;;;;;;6.88;6.32;;;17.30;99.90;;;;;;5074294;28;20049;-67
2023/05/04 01:44:43;;;;;;;7.50;6.90;;;17.20;99.90;;;;;;5064535;28;20029;-67
2023/05/04 01:47:09;;;;;;;7.78;6.82;;;17.20;99.90;;;;;;5036340;28;20402;-68
2023/05/04 01:49:35;;;;;;;7.53;6.80;;;17.10;99.90;;;;;;5034151;28;20096;-67
2023/05/04 01:52:01;;;;;;;7.18;6.57;;;17.20;99.90;;;;;;5034183;28;20029;-67
2023/05/04 01:54:27;;;;;;;7.03;6.43;;;17.20;99.90;;;;;;5033987;28;20030;-67
2023/05/04 01:56:53;;;;;;;7.32;6.68;;;17.20;99.90;;;;;;5034264;28;20032;-68
2023/05/04 01:59:20;;;;;;;7.13;6.53;;;17.10;99.90;;;;;;5029031;28;20401;-67
2023/05/04 02:01:46;;;;;;;7.35;6.82;;;17.00;99.90;;;;;;5031422;28;20045;-69
2023/05/04 02:04:12;;;;;;;7.00;6.40;;;17.10;99.90;;;;;;5027623;28;20030;-67
2023/05/04 02:06:38;;;;;;;7.07;6.38;;;17.10;99.90;;;;;;5028044;28;20045;-69
2023/05/04 02:09:04;;;;;;;7.35;6.72;;;17.00;99.90;;;;;;5029662;28;20036;-67
2023/05/04 02:11:30;;;;;;;7.85;7.18;;;17.10;99.90;;;;;;5031449;28;20044;-67
2023/05/04 02:13:56;;;;;;;7.38;6.78;;;17.10;99.90;;;;;;5031307;28;20463;-67
2023/05/04 02:16:22;;;;;;;6.93;6.32;;;17.20;99.90;;;;;;5032128;28;20140;-68
2023/05/04 02:18:48;;;;;;;7.45;6.78;;;17.20;99.90;;;;;;5031821;28;20033;-68
2023/05/04 02:21:14;;;;;;;7.68;7.07;;;17.30;99.90;;;;;;5031648;28;20104;-67
2023/05/04 02:23:40;;;;;;;7.28;6.68;;;17.30;99.90;;;;;;5030855;28;20041;-68
2023/05/04 02:26:07;;;;;;;7.95;7.07;;;17.30;99.90;;;;;;5032402;28;20386;-68
2023/05/04 02:28:33;;;;;;;7.38;6.75;;;16.90;99.90;;;;;;5032068;28;20037;-68
2023/05/04 02:30:59;;;;;;;7.80;7.05;;;17.00;99.90;;;;;;5042546;28;20517;-67
2023/05/04 02:33:25;;;;;;;7.03;6.53;;;17.20;99.90;;;;;;5062808;28;20029;-68
2023/05/04 02:35:51;;;;;;;7.65;6.90;;;16.90;99.90;;;;;;5069045;28;20021;-68
2023/05/04 02:38:17;;;;;;;8.38;6.50;;;17.10;99.90;;;;;;5057814;28;20027;-68
2023/05/04 02:40:43;;;;;;;8.45;6.75;;;17.00;99.90;;;;;;5062216;28;20028;-69
2023/05/04 02:43:10;;;;;;;7.18;6.57;;;16.90;99.90;;;;;;5070226;28;20390;-69
2023/05/04 02:45:36;;;;;;;7.28;6.60;;;17.10;99.90;;;;;;5067479;28;20040;-69
2023/05/04 02:48:02;;;;;;;7.28;6.60;;;17.10;99.90;;;;;;5073024;28;20473;-68
2023/05/04 02:50:29;;;;;;;7.10;6.50;;;17.10;99.90;;;;;;5072982;28;20041;-68
2023/05/04 02:52:55;;;;;;;6.72;6.20;;;17.10;99.90;;;;;;5072902;28;20460;-67
2023/05/04 02:55:21;;;;;;;8.05;6.68;;;17.20;99.90;;;;;;5072993;28;20028;-68
2023/05/04 02:57:47;;;;;;;7.15;6.45;;;17.10;99.90;;;;;;5072573;28;20055;-68
2023/05/04 03:00:14;;;;;;;7.35;6.65;;;17.30;99.90;;;;;;5072364;28;20021;-68
2023/05/04 03:02:40;;;;;;;7.78;7.18;;;17.20;99.90;;;;;;5072680;28;20401;-68
2023/05/04 03:05:06;;;;;;;7.57;6.97;;;17.30;99.90;;;;;;5072397;28;20028;-68
2023/05/04 03:07:32;;;;;;;7.22;6.65;;;17.20;99.90;;;;;;5072641;28;20033;-68
2023/05/04 03:09:58;;;;;;;7.88;7.22;;;17.10;99.90;;;;;;5072646;28;20516;-68
2023/05/04 03:12:24;;;;;;;10.55;7.10;;;17.20;99.90;;;;;;5072422;28;20036;-68
2023/05/04 03:14:51;;;;;;;7.45;6.80;;;17.00;99.90;;;;;;5061874;28;20381;-68
2023/05/04 03:17:17;;;;;;;7.80;7.10;;;16.90;99.90;;;;;;5052101;28;20029;-68
2023/05/04 03:19:43;;;;;;;7.70;7.00;;;17.00;99.90;;;;;;5048424;28;20474;-68
2023/05/04 03:22:09;;;;;;;8.25;6.90;;;17.00;99.90;;;;;;5048063;28;20028;-68
2023/05/04 03:24:36;;;;;;;9.02;8.13;;;17.00;99.90;;;;;;5037378;28;20037;-68
2023/05/04 03:27:02;;;;;;;7.82;7.22;;;16.80;99.90;;;;;;5045006;28;20049;-68
2023/05/04 03:29:28;;;;;;;7.95;7.25;;;16.60;99.90;;;;;;5046645;28;20029;-68
2023/05/04 03:31:55;;;;;;;9.98;7.57;;;16.30;99.90;;;;;;5050942;28;20040;-68
2023/05/04 03:34:21;;;;;;;9.57;7.60;;;16.30;99.90;;;;;;5050889;28;20025;-68
2023/05/04 03:36:48;;;;;;;7.90;7.28;;;16.30;99.90;;;;;;5052175;28;20060;-68
2023/05/04 03:39:15;;;;;;;7.93;7.28;;;16.40;99.90;;;;;;5052475;28;20029;-68
2023/05/04 03:41:41;;;;;;;8.27;7.45;;;16.40;99.90;;;;;;5049431;28;20028;-68
2023/05/04 03:44:08;;;;;;;7.20;6.38;;;16.30;99.90;;;;;;5051031;28;20040;-68
2023/05/04 03:46:34;;;;;;;7.40;6.80;;;16.20;99.90;;;;;;5049413;28;20044;-68
2023/05/04 03:49:00;;;;;;;6.97;6.38;;;16.10;99.90;;;;;;5066486;28;20056;-68
2023/05/04 03:51:26;;;;;;;8.57;7.10;;;16.20;99.90;;;;;;5052248;28;20033;-68
2023/05/04 03:53:52;;;;;;;9.13;8.32;;;16.20;99.90;;;;;;5048794;28;20036;-68
2023/05/04 03:56:18;;;;;;;7.88;7.28;;;16.10;99.90;;;;;;5051839;28;20450;-68
2023/05/04 03:58:44;;;;;;;8.20;7.50;;;16.00;99.90;;;;;;5052308;28;20037;-68
2023/05/04 04:01:10;;;;;;;7.28;6.68;;;16.00;99.90;;;;;;5050892;28;20130;-68
2023/05/04 04:03:37;;;;;;;7.15;6.55;;;16.00;99.90;;;;;;5049835;28;20421;-68
2023/05/04 04:06:04;;;;;;;7.25;6.50;;;16.00;99.90;;;;;;5051697;28;20045;-68
2023/05/04 04:08:30;;;;;;;7.10;6.40;;;16.00;99.90;;;;;;5048595;28;20048;-68
2023/05/04 04:10:57;;;;;;;7.05;6.45;;;15.90;99.90;;;;;;5051496;28;20028;-68
2023/05/04 04:13:23;;;;;;;7.10;6.45;;;15.80;99.90;;;;;;5051009;28;20036;-68
2023/05/04 04:15:49;;;;;;;7.40;6.80;;;15.90;99.90;;;;;;5050242;28;20033;-68
2023/05/04 04:18:15;;;;;;;8.02;7.38;;;15.90;99.90;;;;;;5054037;28;20029;-68
2023/05/04 04:20:41;;;;;;;8.02;7.32;;;16.00;99.90;;;;;;5054845;28;20029;-68
2023/05/04 04:23:07;;;;;;;7.93;6.90;;;15.90;99.90;;;;;;5052233;28;20044;-68
2023/05/04 04:25:34;;;;;;;7.50;6.88;;;16.10;99.90;;;;;;5055315;28;20033;-68
2023/05/04 04:28:00;;;;;;;7.90;6.78;;;16.20;99.90;;;;;;5053379;28;20041;-68
2023/05/04 04:30:26;;;;;;;8.70;7.00;;;16.20;99.90;;;;;;5053663;28;20033;-68
2023/05/04 04:32:53;;;;;;;6.95;6.35;;;16.20;99.90;;;;;;5055712;28;20040;-68
2023/05/04 04:35:19;;;;;;;7.00;6.35;;;16.30;99.90;;;;;;5055709;28;20048;-68
2023/05/04 04:37:45;;;;;;;7.53;6.90;;;16.30;99.90;;;;;;5054314;28;20028;-67
2023/05/04 04:40:12;;;;;;;7.38;6.68;;;16.40;99.90;;;;;;5055366;28;20041;-68
2023/05/04 04:42:38;;;;;;;8.27;7.05;;;16.40;99.90;;;;;;5055557;28;20486;-68
2023/05/04 04:45:04;;;;;;;7.53;6.82;;;16.40;99.90;;;;;;5054361;28;20032;-70
2023/05/04 04:47:33;;;;;;;9.50;7.10;;;16.20;99.90;;;;;;5055445;28;20032;-68
2023/05/04 04:49:59;;;;;;;8.20;7.05;;;16.30;99.90;;;;;;5055282;28;20204;-68
2023/05/04 04:52:25;;;;;;;10.90;7.47;;;16.50;99.90;;;;;;5054639;28;20400;-68
2023/05/04 04:54:51;;;;;;;8.23;7.63;;;16.70;99.90;;;;;;5054088;28;20025;-67
2023/05/04 04:57:17;;;;;;;8.07;7.28;;;16.50;99.90;;;;;;5055272;28;20366;-69
2023/05/04 04:59:45;;;;;;;8.27;7.57;;;16.30;99.90;;;;;;5055085;28;20044;-67
2023/05/04 05:02:11;;;;;;;8.48;6.90;;;16.20;99.90;;;;;;5054448;28;20060;-68
2023/05/04 05:04:38;;;;;;;7.95;7.25;;;16.20;99.90;;;;;;5051883;28;20025;-68
2023/05/04 05:07:07;;;;;;;8.32;7.72;;;16.30;99.90;;;;;;5054393;28;20465;-68
2023/05/04 05:09:33;;;;;;;8.70;7.15;;;16.20;99.90;;;;;;5051594;28;20052;-68
2023/05/04 05:11:59;;;;;;;8.57;7.80;;;16.20;99.90;;;;;;5053396;28;20033;-68
2023/05/04 05:14:26;;;;;;;8.48;7.88;;;16.30;99.90;;;;;;5054847;28;20493;-68
2023/05/04 05:16:52;;;;;;;7.20;6.32;;;16.40;99.90;;;;;;5051761;28;20044;-68
2023/05/04 05:19:18;;;;;;;7.32;6.60;;;16.50;99.90;;;;;;5054607;28;20032;-68
2023/05/04 05:21:44;;;;;;;6.95;6.25;;;16.60;99.90;;;;;;5050473;28;20028;-67
2023/05/04 05:24:10;;;;;;;7.35;6.65;;;16.70;99.90;;;;;;5052334;28;20041;-67
2023/05/04 05:26:37;;;;;;;7.03;6.32;;;16.50;99.90;;;;;;5054560;28;20028;-68
2023/05/04 05:29:03;;;;;;;7.38;6.68;;;16.50;99.90;;;;;;5052877;28;20032;-68
2023/05/04 05:31:29;;;;;;;8.80;7.90;;;16.60;99.90;;;;;;5054079;28;20029;-68
2023/05/04 05:33:55;;;;;;;7.55;6.95;;;16.70;99.90;;;;;;5053612;28;20046;-68
2023/05/04 05:36:21;;;;;;;7.85;7.15;;;16.60;99.90;;;;;;5051725;28;20049;-68
2023/05/04 05:38:47;;;;;;;6.75;6.15;;;16.40;99.90;;;;;;5054485;28;20037;-68
2023/05/04 05:41:14;;;;;;;6.15;5.63;;;16.40;99.90;;;;;;5053601;28;20036;-68
2023/05/04 05:43:40;;;;;;;6.93;5.68;;;16.20;99.90;;;;;;5052212;28;20056;-68
2023/05/04 05:46:06;;;;;;;6.30;5.57;;;16.20;99.90;;;;;;5054026;28;20029;-68
2023/05/04 05:48:32;;;;;;;6.70;6.20;;;16.30;99.90;;;;;;5054213;28;20045;-68
2023/05/04 05:50:58;;;;;;;7.00;6.32;;;16.50;99.90;;;;;;5068377;28;20025;-67
2023/05/04 05:53:25;;;;;;;8.10;7.40;;;16.60;99.90;;;;;;5053013;28;20029;-68
2023/05/04 05:55:51;;;;;;;8.02;7.35;;;16.70;99.90;;;;;;5053058;28;20033;-68
2023/05/04 05:58:17;;;;;;;8.77;7.97;;;16.90;99.90;;;;;;5054370;28;20029;-68
2023/05/04 06:00:43;;;;;;;7.00;6.30;;;17.10;99.90;;;;;;5052654;28;20028;-68
2023/05/04 06:03:09;;;;;;;6.97;6.38;;;17.20;99.90;;;;;;5068176;28;20036;-68
2023/05/04 06:05:35;;;;;;;6.55;5.95;;;17.30;99.90;;;;;;5053134;28;20501;-68
2023/05/04 06:08:01;;;;;;;6.63;6.05;;;17.20;99.90;;;;;;5068271;28;20187;-68
2023/05/04 06:10:27;;;;;;;7.53;6.65;;;17.10;99.90;;;;;;5053459;28;20449;-69
2023/05/04 06:12:53;;;;;;;6.90;6.32;;;16.90;99.90;;;;;;5053747;28;20032;-68
2023/05/04 06:15:19;;;;;;;6.97;6.38;;;17.00;99.90;;;;;;5068098;28;20037;-68
2023/05/04 06:17:47;;;;;;;8.45;6.10;;;17.10;99.90;;;;;;5053663;28;20025;-68
2023/05/04 06:20:13;;;;;;;8.75;6.47;;;17.10;99.90;;;;;;5053392;28;20039;-68
2023/05/04 06:22:40;;;;;;;6.78;6.13;;;17.20;99.90;;;;;;5053565;28;20045;-68
2023/05/04 06:25:06;;;;;;;6.60;6.10;;;17.00;99.90;;;;;;5053473;28;20029;-67
2023/05/04 06:27:32;;;;;;;8.60;6.53;;;16.90;99.90;;;;;;5068891;28;20025;-68
2023/05/04 06:29:58;;;;;;;8.30;7.45;;;17.00;99.90;;;;;;5051502;28;20028;-68
2023/05/04 06:32:25;;;;;;;8.23;6.88;;;16.90;99.90;;;;;;5052835;28;20033;-68
2023/05/04 06:34:54;;;;;;;8.95;8.05;;;17.00;99.90;;;;;;5053178;28;20036;-68
2023/05/04 06:37:20;;;;;;;8.23;6.43;;;17.10;99.90;;;;;;5068844;28;20025;-67
2023/05/04 06:39:46;;;;;;;10.45;7.13;;;17.00;99.90;;;;;;5051528;28;20386;-68
2023/05/04 06:42:13;;;;;;;7.45;6.38;;;16.70;99.90;;;;;;5052469;28;20478;-68
2023/05/04 06:44:39;;;;;;;6.93;6.18;;;16.40;99.90;;;;;;5052303;28;20052;-68
2023/05/04 06:47:06;;;;;;;7.53;6.70;;;16.30;99.90;;;;;;5052794;28;20029;-68
2023/05/04 06:49:33;;;;;;;7.78;7.07;;;16.50;99.90;;;;;;5066852;28;20045;-68
2023/05/04 06:52:00;;;;;;;10.88;7.70;;;16.70;99.90;;;;;;5067738;28;20045;-68
2023/05/04 06:54:26;;;;;;;8.50;6.95;;;16.90;99.90;;;;;;5068347;28;20028;-68
2023/05/04 06:56:53;;;;;;;7.75;7.05;;;16.90;99.90;;;;;;5052979;28;20021;-68
2023/05/04 06:59:19;;;;;;;7.60;6.90;;;16.80;99.90;;;;;;5052042;28;20025;-68
2023/05/04 07:01:46;;;;;;;8.82;7.40;;;16.60;99.90;;;;;;5052326;28;20041;-68
2023/05/04 07:04:15;;;;;;;7.90;6.95;;;16.50;99.90;;;;;;5052461;28;20033;-68
2023/05/04 07:06:44;;;;;;;7.85;7.05;;;16.60;99.90;;;;;;5067823;28;20033;-68
2023/05/04 07:09:10;;;;;;;7.82;7.13;;;16.80;99.90;;;;;;5052696;28;20488;-68
2023/05/04 07:11:36;;;;;;;9.00;7.57;;;17.00;99.90;;;;;;5052520;28;20033;-68
2023/05/04 07:14:02;;;;;;;8.98;7.65;;;17.20;99.90;;;;;;5052732;28;20025;-68
2023/05/04 07:16:29;;;;;;;9.57;7.85;;;17.30;99.90;;;;;;5051160;28;20033;-68
2023/05/04 07:18:55;;;;;;;7.95;6.75;;;17.10;99.90;;;;;;5051649;28;20387;-68
2023/05/04 07:21:21;;;;;;;9.55;7.95;;;17.10;99.90;;;;;;5067887;28;20040;-68
2023/05/04 07:23:47;;;;;;;8.50;7.47;;;17.30;99.90;;;;;;5052613;28;20505;-68
2023/05/04 07:26:13;;;;;;;8.57;7.53;;;17.50;99.90;;;;;;5052511;28;20044;-68
2023/05/04 07:28:42;;;;;;;8.07;7.35;;;17.70;99.90;;;;;;5052517;28;20028;-68
2023/05/04 07:31:11;;;;;;;7.90;7.28;;;17.80;99.90;;;;;;5051717;28;20056;-68
2023/05/04 07:33:38;;;;;;;9.02;6.53;;;17.80;99.90;;;;;;5067367;28;20029;-68
2023/05/04 07:36:04;;;;;;;7.97;6.40;;;17.90;99.90;;;;;;5067669;28;20032;-68
2023/05/04 07:38:30;;;;;;;8.30;7.00;;;18.00;99.90;;;;;;5052232;28;20036;-68
2023/05/04 07:40:56;;;;;;;7.57;6.68;;;17.90;99.90;;;;;;5050997;28;20039;-68
2023/05/04 07:43:22;;;;;;;10.60;7.05;;;17.90;99.90;;;;;;5052238;28;20025;-68
2023/05/04 07:45:48;;;;;;;8.95;8.07;;;17.90;99.90;;;;;;5051789;28;20112;-68
2023/05/04 07:48:15;;;;;;;7.28;6.57;;;17.60;99.90;;;;;;5051765;28;20033;-68
2023/05/04 07:50:41;;;;;;;7.13;6.43;;;17.70;99.90;;;;;;5052310;28;20029;-68
2023/05/04 07:53:07;;;;;;;8.38;7.57;;;17.80;99.90;;;;;;5051741;28;20029;-68
2023/05/04 07:55:33;;;;;;;8.50;7.45;;;17.90;99.90;;;;;;5052224;28;20032;-68
2023/05/04 07:58:00;;;;;;;8.82;7.40;;;17.80;99.90;;;;;;5052104;28;20029;-68
2023/05/04 08:00:26;;;;;;;7.80;7.10;;;18.00;99.90;;;;;;5050699;28;20036;-68
2023/05/04 08:02:52;;;;;;;9.15;8.13;;;18.10;99.90;;;;;;5049678;28;20037;-68
2023/05/04 08:05:19;;;;;;;9.43;8.63;;;18.20;99.90;;;;;;5033615;28;20064;-68
2023/05/04 08:07:45;;;;;;;8.38;7.63;;;18.20;99.90;;;;;;5051947;28;20025;-68
2023/05/04 08:10:11;;;;;;;7.90;7.15;;;18.10;99.90;;;;;;5051965;28;20040;-68
2023/05/04 08:12:39;;;;;;;9.05;7.35;;;18.10;99.90;;;;;;5067307;28;20021;-68
2023/05/04 08:15:06;;;;;;;8.60;7.80;;;18.10;99.90;;;;;;5051641;28;20457;-68
2023/05/04 08:17:33;;;;;;;10.57;8.20;;;18.10;99.90;;;;;;5051810;28;20447;-68
2023/05/04 08:20:00;;;;;;;8.65;7.85;;;18.10;99.90;;;;;;5051821;28;20501;-68
2023/05/04 08:22:26;;;;;;;9.45;7.75;;;18.00;99.90;;;;;;5050991;28;20079;-68
2023/05/04 08:24:52;;;;;;;9.52;7.18;;;18.10;99.90;;;;;;5051726;28;20059;-68
2023/05/04 08:27:18;;;;;;;8.68;7.28;;;18.10;99.90;;;;;;5051791;28;20386;-68
2023/05/04 08:29:45;;;;;;;8.52;7.70;;;18.00;99.90;;;;;;5051289;28;20025;-68
2023/05/04 08:32:11;;;;;;;8.50;7.13;;;18.00;99.90;;;;;;5050682;28;20028;-68
2023/05/04 08:34:37;;;;;;;7.68;6.82;;;18.10;99.90;;;;;;5051907;28;20187;-68
2023/05/04 08:37:03;;;;;;;8.73;7.93;;;18.10;99.90;;;;;;5050300;28;20041;-68
2023/05/04 08:39:29;;;;;;;8.07;7.25;;;18.20;99.90;;;;;;5051691;28;20033;-68
2023/05/04 08:41:56;;;;;;;10.85;8.15;;;18.30;99.90;;;;;;5067256;28;20040;-68
2023/05/04 08:44:22;;;;;;;8.30;7.47;;;18.30;99.90;;;;;;5065173;28;20037;-69
2023/05/04 08:46:52;;;;;;;9.57;7.30;;;18.40;99.90;;;;;;5051415;28;20036;-68
2023/05/04 08:49:19;;;;;;;8.33;7.27;;;18.70;99.90;;;;;;5050422;28;20442;-68
2023/05/04 08:51:47;;;;;;;9.65;7.68;;;18.90;99.90;;;;;;5050008;28;20283;-68
2023/05/04 08:54:13;;;;;;;8.70;7.25;;;19.30;99.90;;;;;;5065056;28;20037;-68
2023/05/04 08:56:41;;;;;;;9.32;7.43;;;19.60;99.90;;;;;;5064612;28;20042;-68
2023/05/04 08:59:18;;;;;;;7.88;6.82;;;20.00;99.90;;;;;;5049662;28;20481;-69
2023/05/04 09:01:46;;;;;;;7.57;5.82;;;20.30;99.90;;;;;;5049892;28;20033;-68
2023/05/04 09:04:12;;;;;;;7.00;6.07;;;20.60;99.90;;;;;;5051077;28;20037;-68
2023/05/04 09:06:38;;;;;;;6.53;5.93;;;20.80;99.90;;;;;;5051596;28;20032;-68
2023/05/04 09:09:04;;;;;;;7.60;6.13;;;21.00;99.90;;;;;;5052406;28;20029;-68
2023/05/04 09:11:30;;;;;;;6.90;6.28;;;21.20;99.90;;;;;;5053987;28;20073;-68
2023/05/04 09:13:56;;;;;;;7.40;6.63;;;21.30;99.90;;;;;;5054858;28;20036;-69
2023/05/04 09:16:22;;;;;;;7.03;6.32;;;21.50;99.90;;;;;;5054641;28;20025;-68
2023/05/04 09:18:48;;;;;;;6.00;5.50;;;21.70;99.90;;;;;;5052318;28;20040;-68
2023/05/04 09:21:15;;;;;;;6.82;6.18;;;22.00;99.90;;;;;;5054917;28;20374;-68
2023/05/04 09:23:48;;;;;;;6.40;6.00;;;22.20;99.90;;;;;;5054719;28;20436;-68
2023/05/04 09:26:14;;;;;;;6.25;5.85;;;22.30;99.90;;;;;;5054666;28;20505;-69
2023/05/04 09:28:40;;;;;;;6.30;5.70;;;22.50;99.90;;;;;;5046279;28;20028;-69
2023/05/04 09:31:07;;;;;;;5.80;5.30;;;22.50;99.90;;;;;;5037398;28;20029;-69
2023/05/04 09:33:33;;;;;;;5.90;5.50;;;22.60;99.90;;;;;;5053679;28;20492;-69
2023/05/04 09:36:11;;;;;;;6.07;5.57;;;22.70;99.90;;;;;;5053067;28;20033;-68
2023/05/04 09:38:37;;;;;;;6.22;5.35;;;22.70;99.90;;;;;;5053017;28;20024;-68
2023/05/04 09:41:03;;;;;;;5.50;5.00;;;22.80;99.90;;;;;;5053560;28;20021;-68
2023/05/04 09:43:39;;;;;;;5.80;5.22;;;22.80;99.90;;;;;;5051454;28;20021;-69
2023/05/04 09:46:06;;;;;;;5.57;5.10;;;22.80;99.90;;;;;;5048655;28;20046;-69
2023/05/04 09:48:32;;;;;;;6.03;5.53;;;22.80;99.90;;;;;;5040216;28;20390;-69
2023/05/04 09:50:59;;;;;;;5.45;4.97;;;22.90;99.90;;;;;;5054255;28;20037;-68
2023/05/04 09:53:26;;;;;;;6.35;5.75;;;23.10;99.90;;;;;;5053199;28;20036;-69
2023/05/04 09:55:58;;;;;;;5.97;5.38;;;23.20;99.90;;;;;;5053369;28;20025;-68
2023/05/04 09:58:24;;;;;;;5.40;4.90;;;23.30;99.90;;;;;;5052365;28;20036;-68
2023/05/04 10:00:52;;;;;;;5.55;5.05;;;23.40;99.90;;;;;;5067920;28;20037;-68
2023/05/04 10:03:22;;;;;;;5.55;5.13;;;23.40;99.90;;;;;;5048952;28;20041;-69
2023/05/04 10:05:48;;;;;;;5.65;5.15;;;23.50;99.90;;;;;;5069525;28;20358;-69
2023/05/04 10:08:17;;;;;;;5.13;4.70;;;23.60;99.90;;;;;;5051936;28;20028;-68
2023/05/04 10:10:44;;;;;;;5.60;5.10;;;23.60;99.90;;;;;;5051586;28;20139;-68
2023/05/04 10:13:10;;;;;;;8.70;8.20;;;23.60;99.90;;;;;;5052415;28;20051;-68
2023/05/04 10:15:38;;;;;;;7.85;7.35;;;23.70;99.90;;;;;;5051106;28;20025;-69
2023/05/04 10:18:25;;;;;;;8.85;8.25;;;23.80;99.90;;;;;;5052779;28;20394;-68
2023/05/04 10:21:15;;;;;;;9.55;8.85;;;24.00;99.90;;;;;;5067273;28;20025;-68
2023/05/04 10:24:25;;;;;;;9.20;8.50;;;24.10;99.90;;;;;;5050476;28;20462;-68
2023/05/04 10:27:09;;;;;;;9.75;9.05;;;24.20;99.90;;;;;;4985672;28;20038;-68
2023/05/04 10:29:35;;;;;;;8.38;7.88;;;24.30;99.90;;;;;;4973501;28;20033;-68
2023/05/04 10:32:01;;;;;;;8.80;8.20;;;24.30;99.90;;;;;;4958863;28;20392;-68
2023/05/04 10:34:29;;;;;;;9.40;8.50;;;24.30;99.90;;;;;;4967410;28;20057;-68
2023/05/04 10:36:56;;;;;;;9.15;8.50;;;24.30;99.90;;;;;;4969080;28;20035;-68
2023/05/04 10:39:27;;;;;;;8.35;7.85;;;24.20;99.90;;;;;;4972384;28;20027;-68
2023/05/04 10:41:58;;;;;;;9.13;8.30;;;24.10;99.90;;;;;;4969273;28;20038;-68
2023/05/04 10:44:24;;;;;;;9.35;8.60;;;24.00;99.90;;;;;;4969652;28;20047;-68
2023/05/04 10:47:04;;;;;;;10.75;9.95;;;24.00;99.90;;;;;;4971096;28;21811;-68
2023/05/04 10:49:30;;;;;;;8.43;7.93;;;24.10;99.90;;;;;;4977633;28;20050;-68
2023/05/04 10:52:14;;;;;;;10.65;9.77;;;24.30;99.90;;;;;;4976616;28;20030;-68
2023/05/04 10:54:41;;;;;;;10.55;9.75;;;24.30;99.90;;;;;;4975155;28;20037;-68
2023/05/04 10:57:11;;;;;;;9.23;8.63;;;24.30;99.90;;;;;;4956310;28;20036;-68
2023/05/04 10:59:38;;;;;;;8.07;7.18;;;24.20;99.90;;;;;;4977186;28;20047;-68
2023/05/04 11:02:04;;;;;;;7.00;6.50;;;24.00;99.90;;;;;;4990686;28;20160;-67
2023/05/04 11:04:30;;;;;;;6.47;5.97;;;23.80;99.90;;;;;;5031443;28;20057;-68
2023/05/04 11:07:01;;;;;;;7.15;6.65;;;23.60;99.90;;;;;;5041682;28;20045;-68
2023/05/04 11:09:33;;;;;;;8.48;7.70;;;23.60;99.90;;;;;;5041122;28;20040;-68
2023/05/04 11:11:59;;;;;;;7.50;7.03;;;23.80;99.90;;;;;;5044301;28;20030;-68
2023/05/04 11:14:27;;;;;;;10.38;9.48;;;24.00;99.90;;;;;;5038426;28;20033;-68
2023/05/04 11:17:06;;;;;;;11.05;10.45;;;24.00;99.90;;;;;;5048573;28;20033;-68
2023/05/04 11:19:33;;;;;;;10.20;9.60;;;24.20;99.90;;;;;;5052958;28;20025;-68
2023/05/04 11:22:02;;;;;;;10.90;10.27;;;24.30;99.90;;;;;;5043641;28;20014;-68
2023/05/04 11:24:43;;;;;;;9.48;8.82;;;24.10;99.90;;;;;;5037056;28;20040;-68
2023/05/04 11:27:27;;;;;;;7.18;6.70;;;23.90;99.90;;;;;;5032368;28;20667;-68
2023/05/04 11:30:01;;;;;;;6.40;6.00;;;23.50;99.90;;;;;;5047153;28;20390;-68
2023/05/04 11:32:33;;;;;;;7.03;6.57;;;23.40;99.90;;;;;;5030959;28;20037;-68
2023/05/04 11:35:00;;;;;;;8.23;7.72;;;23.50;99.90;;;;;;5026931;28;20041;-68
2023/05/04 11:37:28;;;;;;;8.85;8.07;;;23.60;99.90;;;;;;5045977;28;20420;-68
2023/05/04 11:39:55;;;;;;;7.07;6.55;;;23.70;99.90;;;;;;5031306;28;20032;-68
2023/05/04 11:42:21;;;;;;;7.80;7.18;;;23.70;99.90;;;;;;5031049;28;20044;-68
2023/05/04 11:44:47;;;;;;;5.80;5.43;;;23.60;99.90;;;;;;5032688;28;20045;-68
2023/05/04 11:47:14;;;;;;;6.43;6.03;;;23.50;99.90;;;;;;5044984;28;20052;-68
2023/05/04 11:49:40;;;;;;;6.90;6.35;;;23.50;99.90;;;;;;5032175;28;20052;-68
2023/05/04 11:52:07;;;;;;;5.05;4.75;;;23.50;99.90;;;;;;5030229;28;20494;-68
2023/05/04 11:54:33;;;;;;;4.95;4.65;;;23.50;99.90;;;;;;5032042;28;20036;-68
2023/05/04 11:57:02;;;;;;;5.43;5.03;;;23.30;99.90;;;;;;5031876;28;20022;-67
2023/05/04 11:59:29;;;;;;;4.97;4.68;;;23.10;99.90;;;;;;5030751;28;20033;-68
2023/05/04 12:01:55;;;;;;;5.55;5.15;;;23.00;99.90;;;;;;5065954;28;20032;-68
2023/05/04 12:04:21;;;;;;;5.55;5.13;;;23.10;99.90;;;;;;5060804;28;20032;-68
2023/05/04 12:06:48;;;;;;;5.20;4.70;;;23.20;99.90;;;;;;5064288;28;20021;-68
2023/05/04 12:09:15;;;;;;;5.50;5.10;;;23.40;99.90;;;;;;5058965;28;20394;-68
2023/05/04 12:11:41;;;;;;;6.05;5.55;;;23.50;99.90;;;;;;5068826;28;20044;-68
2023/05/04 12:14:09;;;;;;;7.22;6.82;;;23.60;99.90;;;;;;5055601;28;20465;-68
2023/05/04 12:16:36;;;;;;;8.65;8.07;;;23.70;99.90;;;;;;5075697;28;20052;-68
2023/05/04 12:19:12;;;;;;;9.05;8.45;;;23.60;99.90;;;;;;5060917;28;20029;-68
2023/05/04 12:21:48;;;;;;;8.68;7.95;;;23.50;99.90;;;;;;5067076;28;20017;-68
2023/05/04 12:24:14;;;;;;;10.25;9.65;;;23.50;99.90;;;;;;5067899;28;20036;-68
2023/05/04 12:26:41;;;;;;;10.85;10.18;;;23.60;99.90;;;;;;5059793;28;20381;-68
2023/05/04 12:29:07;;;;;;;11.27;10.57;;;23.60;99.90;;;;;;5066896;28;20040;-67
2023/05/04 12:31:33;;;;;;;12.80;11.90;;;23.70;99.90;;;;;;5071290;28;20025;-68
2023/05/04 12:33:59;;;;;;;10.15;9.52;;;23.80;99.90;;;;;;5070756;28;20385;-68
2023/05/04 12:36:25;;;;;;;10.20;9.45;;;24.00;99.90;;;;;;5064903;28;20056;-68
2023/05/04 12:38:52;;;;;;;9.38;8.68;;;24.10;99.90;;;;;;5059838;28;20025;-68
2023/05/04 12:41:18;;;;;;;10.07;9.40;;;24.20;99.90;;;;;;5073939;28;20051;-68
2023/05/04 12:43:44;;;;;;;10.02;9.43;;;24.10;99.90;;;;;;5074113;28;20462;-68
2023/05/04 12:46:10;;;;;;;9.88;9.27;;;23.90;99.90;;;;;;5045818;28;20041;-68